Time;durP1;ratioP1;P1;durP2;ratioP2;P2;SDS_P1;SDS_P2;PMS_P1;PMS_P2;Temp;Humidity;BMP_temperature;BMP_pressure;BME280_temperature;BME280_humidity;BME280_pressure;Samples;Min_cycle;Max_cycle;Signal;HPM_P1;HPM_P2
2021/07/26 00:01:14;;;;;;;15.60;4.97;;;23.30;92.40;;;;;;5051633;28;20040;-70
2021/07/26 00:04:18;;;;;;;12.48;4.57;;;23.30;92.30;;;;;;5052136;28;20467;-70
2021/07/26 00:07:22;;;;;;;18.00;4.97;;;23.20;92.40;;;;;;5048900;28;20028;-70
2021/07/26 00:10:26;;;;;;;10.50;4.50;;;23.20;92.50;;;;;;5031356;28;20045;-70
2021/07/26 00:13:30;;;;;;;13.50;4.75;;;23.20;92.60;;;;;;5031929;28;20049;-70
2021/07/26 00:16:34;;;;;;;13.38;5.57;;;23.20;92.50;;;;;;5032293;28;20041;-70
2021/07/26 00:19:39;;;;;;;10.85;4.65;;;23.20;92.60;;;;;;5031666;28;20061;-70
2021/07/26 00:22:43;;;;;;;12.65;5.30;;;23.10;93.00;;;;;;5031784;28;20048;-70
2021/07/26 00:25:48;;;;;;;18.13;5.00;;;23.10;92.80;;;;;;5031692;28;20053;-70
2021/07/26 00:28:54;;;;;;;11.23;4.68;;;23.10;92.90;;;;;;5031611;28;20048;-71
2021/07/26 00:31:58;;;;;;;14.00;5.20;;;23.10;92.80;;;;;;5030963;28;20399;-70
2021/07/26 00:35:02;;;;;;;21.77;4.53;;;23.00;92.80;;;;;;5031481;28;20036;-70
2021/07/26 00:38:07;;;;;;;16.23;5.00;;;23.00;92.70;;;;;;5030707;28;20067;-70
2021/07/26 00:41:11;;;;;;;14.27;4.50;;;23.00;92.70;;;;;;5030943;28;20041;-70
2021/07/26 00:44:16;;;;;;;17.65;4.95;;;22.90;92.90;;;;;;5031144;28;20049;-70
2021/07/26 00:47:20;;;;;;;15.02;4.95;;;22.80;93.00;;;;;;5031181;28;20045;-70
2021/07/26 00:50:24;;;;;;;11.13;4.57;;;22.80;93.10;;;;;;5030282;28;20644;-71
2021/07/26 00:53:29;;;;;;;13.13;5.82;;;22.80;93.30;;;;;;5031096;28;20036;-70
2021/07/26 00:56:34;;;;;;;12.77;4.85;;;22.80;93.30;;;;;;5031085;28;20044;-70
2021/07/26 00:59:39;;;;;;;9.55;4.82;;;22.70;93.40;;;;;;5029967;28;20041;-70
2021/07/26 01:02:44;;;;;;;12.73;4.65;;;22.70;93.40;;;;;;5031211;28;20057;-70
2021/07/26 01:05:48;;;;;;;15.88;4.85;;;22.80;93.40;;;;;;5029989;28;20057;-70
2021/07/26 01:08:54;;;;;;;13.02;4.85;;;22.80;93.40;;;;;;5046388;28;20068;-70
2021/07/26 01:11:58;;;;;;;10.55;4.45;;;22.80;93.50;;;;;;5050277;28;20506;-70
2021/07/26 01:15:04;;;;;;;14.05;5.10;;;22.80;93.50;;;;;;5050746;28;20044;-70
2021/07/26 01:18:24;;;;;;;16.65;5.20;;;22.80;93.60;;;;;;5050838;28;20048;-70
2021/07/26 01:21:30;;;;;;;17.70;5.05;;;22.80;93.60;;;;;;5050111;28;20040;-70
2021/07/26 01:24:34;;;;;;;19.52;5.03;;;22.80;93.90;;;;;;5050446;28;20048;-70
2021/07/26 01:27:38;;;;;;;17.85;5.07;;;22.80;94.20;;;;;;5050353;28;20057;-70
2021/07/26 01:30:44;;;;;;;19.60;4.38;;;22.90;94.30;;;;;;5049888;28;20380;-70
2021/07/26 01:33:50;;;;;;;18.20;4.78;;;23.10;94.10;;;;;;5049452;28;20506;-70
2021/07/26 01:36:54;;;;;;;10.70;4.80;;;23.20;93.90;;;;;;5050395;28;20040;-70
2021/07/26 01:39:58;;;;;;;12.10;4.45;;;23.40;93.70;;;;;;5050561;28;20044;-70
2021/07/26 01:43:07;;;;;;;11.75;4.35;;;23.70;93.10;;;;;;5049392;28;20056;-71
2021/07/26 01:46:26;;;;;;;11.55;4.72;;;24.00;92.50;;;;;;5050159;28;20036;-70
2021/07/26 01:50:00;;;;;;;13.50;4.90;;;24.20;92.00;;;;;;5049884;28;20059;-70
2021/07/26 01:53:06;;;;;;;13.00;4.38;;;24.40;91.80;;;;;;5049923;28;20040;-71
2021/07/26 01:56:14;;;;;;;10.55;4.75;;;24.50;91.60;;;;;;5050596;28;20048;-69
2021/07/26 01:59:18;;;;;;;13.48;4.55;;;24.50;91.30;;;;;;5050616;28;20059;-70
2021/07/26 02:02:23;;;;;;;10.32;4.43;;;24.60;91.20;;;;;;5048768;28;20040;-70
2021/07/26 02:05:28;;;;;;;9.82;4.00;;;24.60;91.20;;;;;;5050061;28;20059;-69
2021/07/26 02:08:33;;;;;;;12.20;3.80;;;24.50;91.30;;;;;;5037526;28;20060;-69
2021/07/26 02:11:37;;;;;;;12.63;4.70;;;24.60;91.10;;;;;;5028429;28;20044;-70
2021/07/26 02:14:41;;;;;;;11.40;4.13;;;24.60;91.00;;;;;;5030065;28;20049;-70
2021/07/26 02:17:46;;;;;;;11.68;4.32;;;24.80;90.90;;;;;;5030310;28;20052;-70
2021/07/26 02:20:49;;;;;;;11.63;4.47;;;24.80;90.80;;;;;;5029714;28;20042;-71
2021/07/26 02:23:55;;;;;;;16.73;4.40;;;24.90;90.80;;;;;;5030560;28;20396;-70
2021/07/26 02:26:59;;;;;;;11.48;5.13;;;25.00;90.70;;;;;;5030285;28;20048;-71
2021/07/26 02:30:03;;;;;;;18.27;4.72;;;25.00;90.60;;;;;;5029873;28;20427;-70
2021/07/26 02:33:08;;;;;;;11.63;5.07;;;25.00;90.80;;;;;;5029816;28;20053;-71
2021/07/26 02:36:11;;;;;;;16.90;4.93;;;24.80;91.10;;;;;;5030004;28;20044;-70
2021/07/26 02:39:16;;;;;;;15.38;4.32;;;24.70;91.50;;;;;;5030138;28;20045;-70
2021/07/26 02:42:20;;;;;;;13.18;4.47;;;24.70;91.40;;;;;;5028094;28;20041;-70
2021/07/26 02:45:26;;;;;;;14.25;4.90;;;24.70;91.50;;;;;;5018865;28;20049;-70
2021/07/26 02:48:30;;;;;;;16.52;5.13;;;24.50;91.90;;;;;;5049639;28;20048;-70
2021/07/26 02:51:34;;;;;;;9.77;4.75;;;24.30;92.20;;;;;;5032539;28;20048;-71
2021/07/26 02:54:38;;;;;;;15.27;4.57;;;24.00;92.60;;;;;;5029498;28;20040;-71
2021/07/26 02:57:42;;;;;;;15.20;4.82;;;23.50;93.20;;;;;;5029412;28;20044;-70
2021/07/26 03:00:47;;;;;;;11.05;4.60;;;23.10;93.70;;;;;;5009168;28;20040;-70
2021/07/26 03:03:52;;;;;;;12.10;4.57;;;22.80;94.40;;;;;;5009586;28;20516;-70
2021/07/26 03:06:55;;;;;;;13.00;4.53;;;22.50;94.80;;;;;;5009719;28;20183;-70
2021/07/26 03:09:59;;;;;;;11.55;5.25;;;22.40;95.30;;;;;;5009581;28;20045;-72
2021/07/26 03:13:04;;;;;;;13.93;5.05;;;22.30;95.80;;;;;;5009568;28;20065;-71
2021/07/26 03:16:11;;;;;;;14.43;4.82;;;22.20;96.30;;;;;;5029137;28;20028;-71
2021/07/26 03:19:15;;;;;;;12.90;5.45;;;22.10;96.50;;;;;;5052848;28;20043;-71
2021/07/26 03:22:56;;;;;;;14.48;5.53;;;22.10;96.40;;;;;;5052456;28;20052;-70
2021/07/26 03:26:00;;;;;;;11.95;5.20;;;22.20;96.30;;;;;;5052793;28;20049;-70
2021/07/26 03:29:04;;;;;;;13.30;5.53;;;22.30;96.20;;;;;;5052601;28;20040;-70
2021/07/26 03:32:08;;;;;;;16.63;5.35;;;22.30;96.30;;;;;;5052262;28;20507;-70
2021/07/26 03:35:14;;;;;;;11.40;5.00;;;22.30;96.30;;;;;;5052226;28;20048;-70
2021/07/26 03:38:22;;;;;;;11.65;6.40;;;22.30;96.50;;;;;;5052766;28;20048;-70
2021/07/26 03:41:26;;;;;;;12.07;5.05;;;22.20;96.50;;;;;;5052391;28;20044;-71
2021/07/26 03:44:30;;;;;;;11.77;5.40;;;22.10;96.80;;;;;;5052091;28;20391;-71
2021/07/26 03:47:35;;;;;;;12.70;4.97;;;22.10;97.60;;;;;;5052429;28;20047;-71
2021/07/26 03:50:40;;;;;;;10.05;4.82;;;22.00;97.70;;;;;;5043855;28;20040;-70
2021/07/26 03:53:45;;;;;;;20.67;6.25;;;22.00;98.10;;;;;;5030456;28;20403;-70
2021/07/26 03:56:50;;;;;;;10.18;4.72;;;22.00;97.90;;;;;;5034544;28;20041;-71
2021/07/26 03:59:53;;;;;;;13.82;5.15;;;22.10;98.10;;;;;;5038762;28;20048;-72
2021/07/26 04:06:15;;;;;;;12.98;5.80;;;22.10;98.00;;;;;;5052043;28;20052;-71
2021/07/26 04:09:22;;;;;;;15.80;6.50;;;22.10;98.10;;;;;;5037679;28;20048;-70
2021/07/26 04:12:29;;;;;;;23.33;6.72;;;22.20;98.20;;;;;;5032005;28;20483;-70
2021/07/26 04:15:33;;;;;;;18.90;6.05;;;22.50;98.70;;;;;;5031942;28;20048;-70
2021/07/26 04:18:37;;;;;;;19.60;5.70;;;23.40;97.10;;;;;;5034964;28;20040;-70
2021/07/26 04:21:43;;;;;;;15.95;6.28;;;23.90;96.00;;;;;;5037922;28;20499;-69
2021/07/26 04:24:46;;;;;;;18.45;6.13;;;24.00;95.80;;;;;;5033254;28;20048;-70
2021/07/26 04:27:50;;;;;;;22.85;7.13;;;24.10;95.70;;;;;;5039865;28;20036;-69
2021/07/26 04:31:13;;;;;;;24.45;6.97;;;24.60;95.10;;;;;;5050045;28;20040;-69
2021/07/26 04:34:17;;;;;;;30.10;6.40;;;24.90;94.80;;;;;;5039597;28;20507;-71
2021/07/26 04:37:21;;;;;;;22.73;7.35;;;25.10;94.40;;;;;;5037067;28;20044;-70
2021/07/26 04:40:25;;;;;;;26.52;6.90;;;25.00;94.70;;;;;;5037327;28;20036;-70
2021/07/26 04:43:29;;;;;;;17.83;6.85;;;24.90;94.90;;;;;;5023780;28;20051;-70
2021/07/26 04:46:33;;;;;;;16.88;6.10;;;25.10;94.80;;;;;;5032910;28;20057;-70
2021/07/26 04:49:37;;;;;;;26.98;7.22;;;25.10;94.50;;;;;;5016903;28;20045;-71
2021/07/26 04:52:41;;;;;;;23.08;7.43;;;25.20;94.40;;;;;;5028301;28;20040;-70
2021/07/26 04:55:45;;;;;;;23.90;7.65;;;25.20;94.40;;;;;;5030517;28;20052;-70
2021/07/26 04:59:08;;;;;;;23.25;7.35;;;25.20;94.60;;;;;;5032344;28;20028;-71
2021/07/26 05:02:12;;;;;;;23.45;7.25;;;25.40;94.20;;;;;;5023562;28;20377;-71
2021/07/26 05:05:16;;;;;;;22.63;7.00;;;25.60;94.10;;;;;;5010712;28;20053;-69
2021/07/26 05:08:21;;;;;;;28.00;7.78;;;25.70;93.90;;;;;;5011300;28;20045;-71
2021/07/26 05:11:27;;;;;;;28.98;7.25;;;25.70;93.90;;;;;;5018050;28;20052;-70
2021/07/26 05:14:32;;;;;;;22.10;6.85;;;25.60;94.10;;;;;;5028172;28;20056;-70
2021/07/26 05:17:37;;;;;;;17.23;6.55;;;25.20;94.60;;;;;;5027247;28;20045;-69
2021/07/26 05:20:41;;;;;;;21.42;5.95;;;24.80;95.10;;;;;;5010635;28;20059;-70
2021/07/26 05:23:45;;;;;;;19.38;6.50;;;24.30;96.20;;;;;;5014944;28;20144;-71
2021/07/26 05:26:59;;;;;;;29.23;7.03;;;23.90;96.90;;;;;;5027567;28;20040;-71
2021/07/26 05:30:04;;;;;;;18.17;5.47;;;23.80;97.30;;;;;;5029705;28;20056;-71
2021/07/26 05:33:09;;;;;;;21.25;6.50;;;23.70;97.70;;;;;;5026862;28;20052;-70
2021/07/26 05:36:13;;;;;;;24.10;6.70;;;23.90;98.10;;;;;;5029235;28;20044;-70
2021/07/26 05:39:17;;;;;;;22.75;6.95;;;24.50;97.60;;;;;;5020973;28;20040;-70
2021/07/26 05:42:21;;;;;;;14.38;6.18;;;25.10;96.80;;;;;;5029306;28;20297;-71
2021/07/26 05:45:26;;;;;;;16.88;6.35;;;26.20;96.10;;;;;;5029795;28;20048;-70
2021/07/26 05:48:32;;;;;;;16.80;5.70;;;26.90;94.60;;;;;;5030593;28;20044;-70
2021/07/26 05:51:37;;;;;;;13.52;4.97;;;26.70;95.20;;;;;;5045081;28;20404;-70
2021/07/26 05:54:41;;;;;;;21.63;6.30;;;27.50;94.40;;;;;;5028472;28;20052;-71
2021/07/26 05:57:46;;;;;;;13.73;5.63;;;27.70;93.90;;;;;;5028507;28;20040;-71
2021/07/26 06:04:27;;;;;;;16.23;5.55;;;30.30;91.60;;;;;;4999440;28;20040;-70
2021/07/26 06:07:31;;;;;;;16.58;5.72;;;31.90;90.10;;;;;;5027248;28;20067;-70
2021/07/26 06:10:36;;;;;;;12.80;4.53;;;32.90;88.20;;;;;;5030246;28;20037;-70
2021/07/26 06:13:40;;;;;;;11.13;5.15;;;33.40;86.00;;;;;;5010770;28;20052;-71
2021/07/26 06:16:46;;;;;;;12.80;4.68;;;33.70;84.50;;;;;;5027703;28;20052;-70
2021/07/26 06:19:50;;;;;;;12.65;5.63;;;33.50;84.20;;;;;;5023722;28;20041;-70
2021/07/26 06:22:54;;;;;;;16.38;5.05;;;32.90;84.90;;;;;;5024165;28;20499;-72
2021/07/26 06:25:59;;;;;;;13.75;4.63;;;32.70;85.50;;;;;;5019413;28;20041;-70
2021/07/26 06:29:04;;;;;;;9.32;4.22;;;33.10;84.70;;;;;;5022142;28;20490;-70
2021/07/26 06:32:08;;;;;;;21.98;6.00;;;32.80;84.60;;;;;;5029611;28;20048;-71
2021/07/26 06:35:12;;;;;;;15.30;4.80;;;31.10;86.60;;;;;;5011011;28;20483;-70
2021/07/26 06:38:16;;;;;;;12.95;5.47;;;30.30;88.60;;;;;;5015336;28;20036;-71
2021/07/26 06:41:21;;;;;;;11.55;5.07;;;29.70;90.20;;;;;;5028886;28;20048;-70
2021/07/26 06:44:25;;;;;;;14.07;5.10;;;28.90;91.10;;;;;;5024612;28;20396;-69
2021/07/26 06:47:29;;;;;;;15.82;5.50;;;28.30;92.00;;;;;;5030034;28;20499;-70
2021/07/26 06:50:33;;;;;;;16.83;6.28;;;27.90;92.50;;;;;;5043905;28;20052;-70
2021/07/26 06:53:37;;;;;;;14.15;5.65;;;27.50;93.20;;;;;;5015358;28;20068;-69
2021/07/26 06:56:41;;;;;;;17.35;6.13;;;27.10;94.00;;;;;;5014393;28;20649;-70
2021/07/26 06:59:45;;;;;;;15.07;5.90;;;26.60;94.40;;;;;;5013100;28;20040;-70
2021/07/26 07:02:51;;;;;;;18.73;6.10;;;26.90;94.00;;;;;;5015555;28;20614;-70
2021/07/26 07:06:02;;;;;;;15.43;6.00;;;27.00;94.30;;;;;;5014333;28;20041;-69
2021/07/26 07:09:06;;;;;;;15.77;5.53;;;27.50;94.00;;;;;;5013815;28;20045;-70
2021/07/26 07:12:10;;;;;;;20.90;6.55;;;27.50;93.70;;;;;;5017454;28;20044;-70
2021/07/26 07:15:19;;;;;;;14.85;5.43;;;27.30;93.40;;;;;;5013768;28;20048;-71
2021/07/26 07:18:23;;;;;;;18.35;6.00;;;26.80;94.30;;;;;;5031963;28;20071;-70
2021/07/26 07:21:30;;;;;;;18.77;6.32;;;26.80;94.80;;;;;;5032808;28;20064;-70
2021/07/26 07:24:35;;;;;;;17.60;6.45;;;26.40;94.60;;;;;;5027155;28;20059;-70
2021/07/26 07:27:39;;;;;;;13.48;5.57;;;26.30;95.10;;;;;;5023362;28;20056;-69
2021/07/26 07:30:43;;;;;;;25.45;5.90;;;26.20;95.30;;;;;;5025678;28;20052;-69
2021/07/26 07:33:47;;;;;;;31.80;7.53;;;26.10;95.40;;;;;;5029761;28;20048;-70
2021/07/26 07:36:52;;;;;;;19.98;5.90;;;26.20;95.00;;;;;;5017330;28;20424;-69
2021/07/26 07:39:57;;;;;;;18.98;5.70;;;26.30;94.80;;;;;;5032487;28;20040;-70
2021/07/26 07:43:02;;;;;;;22.80;6.00;;;26.40;94.70;;;;;;5012257;28;20053;-71
2021/07/26 07:46:07;;;;;;;15.27;6.00;;;26.70;94.50;;;;;;5014952;28;20041;-70
2021/07/26 07:49:11;;;;;;;27.33;7.32;;;26.90;94.60;;;;;;5024259;28;20044;-70
2021/07/26 07:52:15;;;;;;;20.42;6.47;;;26.90;94.40;;;;;;5025462;28;20052;-70
2021/07/26 07:55:20;;;;;;;22.42;6.78;;;27.30;94.20;;;;;;5020548;28;20499;-69
2021/07/26 07:58:24;;;;;;;19.02;6.15;;;27.40;94.10;;;;;;5028696;28;20040;-70
2021/07/26 08:01:32;;;;;;;15.45;6.25;;;27.30;94.30;;;;;;5029754;28;20040;-70
2021/07/26 08:04:39;;;;;;;17.58;5.63;;;26.70;94.80;;;;;;5032070;28;20049;-69
2021/07/26 08:07:43;;;;;;;20.77;6.38;;;26.80;94.90;;;;;;5031567;28;20396;-70
2021/07/26 08:10:48;;;;;;;17.40;5.88;;;26.90;95.00;;;;;;5031511;28;20052;-70
2021/07/26 08:13:52;;;;;;;19.92;6.00;;;27.20;94.60;;;;;;5031752;28;20040;-70
2021/07/26 08:17:03;;;;;;;19.88;6.53;;;27.60;94.20;;;;;;5027950;28;20399;-70
2021/07/26 08:20:09;;;;;;;20.50;6.15;;;28.10;93.50;;;;;;5025721;28;20044;-70
2021/07/26 08:23:14;;;;;;;23.13;5.55;;;28.40;92.90;;;;;;5018341;28;20077;-69
2021/07/26 08:26:21;;;;;;;25.40;6.55;;;28.60;91.90;;;;;;5030391;28;20048;-70
2021/07/26 08:29:25;;;;;;;14.07;5.40;;;28.50;92.40;;;;;;5028878;28;20056;-69
2021/07/26 08:32:29;;;;;;;18.73;5.55;;;28.50;92.20;;;;;;5030918;28;20420;-70
2021/07/26 08:35:35;;;;;;;20.17;6.03;;;28.50;92.70;;;;;;5028180;28;20048;-69
2021/07/26 08:38:39;;;;;;;19.92;5.28;;;28.50;91.80;;;;;;5022038;28;20037;-69
2021/07/26 08:41:43;;;;;;;17.75;5.57;;;28.60;91.60;;;;;;5025835;28;20068;-69
2021/07/26 08:44:48;;;;;;;21.98;5.28;;;28.30;92.10;;;;;;5030109;28;20060;-69
2021/07/26 08:47:59;;;;;;;11.60;5.18;;;28.40;91.80;;;;;;5029178;28;20048;-70
2021/07/26 08:51:06;;;;;;;21.48;6.55;;;28.30;91.80;;;;;;5021585;28;20452;-69
2021/07/26 08:54:14;;;;;;;18.27;5.35;;;28.20;92.00;;;;;;5028432;28;20048;-70
2021/07/26 08:57:19;;;;;;;20.58;6.95;;;28.30;92.00;;;;;;5026772;28;20040;-70
2021/07/26 09:00:24;;;;;;;19.52;4.72;;;28.30;92.30;;;;;;5030924;28;20056;-68
2021/07/26 09:03:28;;;;;;;18.10;5.57;;;28.50;92.10;;;;;;5023554;28;20052;-71
2021/07/26 09:06:32;;;;;;;16.60;5.65;;;28.60;91.60;;;;;;5027190;28;20076;-70
2021/07/26 09:09:48;;;;;;;21.27;5.55;;;28.70;92.00;;;;;;5026422;28;20064;-69
2021/07/26 09:12:55;;;;;;;15.85;5.55;;;29.20;91.80;;;;;;5023710;28;20053;-71
2021/07/26 09:16:22;;;;;;;13.38;5.03;;;29.30;91.40;;;;;;5012457;28;20037;-69
2021/07/26 09:19:28;;;;;;;18.67;5.13;;;29.30;90.70;;;;;;5023019;28;20052;-70
2021/07/26 09:22:34;;;;;;;21.08;5.80;;;29.20;91.20;;;;;;5011514;28;20033;-67
2021/07/26 09:25:40;;;;;;;17.20;5.60;;;29.00;91.50;;;;;;5012876;28;20044;-69
2021/07/26 09:28:44;;;;;;;18.23;5.85;;;29.00;91.50;;;;;;5029466;28;20044;-70
2021/07/26 09:31:59;;;;;;;15.43;5.05;;;30.20;90.80;;;;;;5026126;28;20044;-70
2021/07/26 09:35:09;;;;;;;15.90;4.85;;;32.50;87.90;;;;;;5011631;28;20041;-68
2021/07/26 09:38:16;;;;;;;14.77;5.03;;;33.80;84.70;;;;;;5018401;28;20040;-69
2021/07/26 09:41:44;;;;;;;14.57;4.70;;;33.50;83.90;;;;;;5018531;28;20380;-70
2021/07/26 09:44:48;;;;;;;14.45;4.57;;;35.00;82.10;;;;;;5018174;28;20053;-70
2021/07/26 09:48:12;;;;;;;11.48;4.75;;;34.70;81.00;;;;;;5021323;28;20044;-69
2021/07/26 09:51:17;;;;;;;11.13;4.88;;;33.10;82.80;;;;;;5046115;28;20048;-70
2021/07/26 09:54:43;;;;;;;20.20;5.10;;;34.10;81.40;;;;;;5032577;28;20519;-69
2021/07/26 09:57:50;;;;;;;17.55;5.60;;;34.40;79.20;;;;;;5016127;28;20040;-68
2021/07/26 10:00:54;;;;;;;16.98;5.70;;;32.60;83.40;;;;;;5021777;28;20499;-70
2021/07/26 10:03:58;;;;;;;16.05;6.32;;;31.30;86.50;;;;;;5020473;28;20407;-70
2021/07/26 10:07:03;;;;;;;16.15;5.40;;;30.90;85.70;;;;;;5024593;28;20074;-70
2021/07/26 10:10:08;;;;;;;14.48;5.60;;;30.30;87.80;;;;;;5015352;28;20551;-68
2021/07/26 10:13:13;;;;;;;13.55;5.30;;;29.70;89.00;;;;;;5018468;28;20117;-68
2021/07/26 10:16:18;;;;;;;18.08;5.75;;;30.30;88.40;;;;;;5029221;28;20246;-69
2021/07/26 10:19:22;;;;;;;22.08;6.50;;;30.00;88.40;;;;;;5029607;28;20041;-69
2021/07/26 10:22:28;;;;;;;15.75;5.85;;;30.00;88.40;;;;;;5029368;28;20044;-70
2021/07/26 10:25:38;;;;;;;14.60;5.18;;;29.80;86.80;;;;;;5029262;28;20040;-70
2021/07/26 10:28:57;;;;;;;22.00;5.95;;;30.00;86.90;;;;;;5015843;28;20041;-69
2021/07/26 10:32:41;;;;;;;15.13;5.82;;;29.80;89.60;;;;;;5032759;28;20044;-69
2021/07/26 10:35:49;;;;;;;15.48;5.00;;;29.90;89.70;;;;;;5033420;28;20048;-69
2021/07/26 10:38:55;;;;;;;18.55;5.20;;;30.70;85.70;;;;;;5023169;28;20049;-70
2021/07/26 10:42:00;;;;;;;20.73;5.75;;;32.40;82.20;;;;;;5033265;28;20044;-69
2021/07/26 10:45:06;;;;;;;14.52;4.75;;;34.10;77.30;;;;;;5036417;28;20052;-69
2021/07/26 10:48:22;;;;;;;15.90;5.32;;;35.20;79.50;;;;;;5021731;28;20056;-71
2021/07/26 10:51:40;;;;;;;12.02;4.75;;;34.10;78.50;;;;;;5026878;28;20040;-69
2021/07/26 10:54:44;;;;;;;23.42;5.65;;;34.40;77.10;;;;;;5021415;28;20508;-67
2021/07/26 10:57:49;;;;;;;15.52;4.82;;;33.50;79.30;;;;;;5026388;28;20060;-69
2021/07/26 11:01:16;;;;;;;16.92;5.28;;;35.80;75.10;;;;;;5022035;28;20057;-69
2021/07/26 11:04:39;;;;;;;16.77;5.22;;;36.40;73.70;;;;;;5014797;28;20495;-69
2021/07/26 11:07:43;;;;;;;19.38;4.53;;;35.40;73.00;;;;;;5021472;28;20817;-69
2021/07/26 11:10:49;;;;;;;22.45;6.35;;;34.00;75.00;;;;;;5020838;28;20041;-67
2021/07/26 11:13:52;;;;;;;17.02;4.78;;;32.10;78.90;;;;;;5019951;28;20044;-70
2021/07/26 11:17:04;;;;;;;15.23;5.05;;;31.90;78.60;;;;;;5008528;28;20047;-69
2021/07/26 11:20:09;;;;;;;18.73;4.93;;;31.40;79.40;;;;;;5015908;28;20045;-68
2021/07/26 11:23:37;;;;;;;18.63;5.38;;;32.10;79.10;;;;;;5018100;28;20060;-69
2021/07/26 11:26:49;;;;;;;22.25;5.22;;;32.80;77.80;;;;;;5019059;28;20052;-67
2021/07/26 11:29:54;;;;;;;14.32;4.55;;;32.70;77.00;;;;;;5017960;28;20072;-70
2021/07/26 11:32:59;;;;;;;16.35;5.47;;;32.80;76.90;;;;;;5020890;28;20056;-70
2021/07/26 11:36:09;;;;;;;13.95;5.10;;;32.60;77.70;;;;;;5021540;28;20048;-70
2021/07/26 11:39:13;;;;;;;19.30;4.80;;;31.60;78.80;;;;;;5014230;28;20380;-70
2021/07/26 11:42:26;;;;;;;22.65;5.55;;;31.30;79.90;;;;;;5019248;28;20420;-68
2021/07/26 11:45:31;;;;;;;17.55;5.43;;;30.70;81.60;;;;;;5014218;28;20052;-69
2021/07/26 11:48:36;;;;;;;15.63;5.35;;;31.00;81.10;;;;;;5016965;28;20048;-69
2021/07/26 11:51:42;;;;;;;16.88;5.05;;;31.30;81.00;;;;;;5016873;28;20041;-68
2021/07/26 11:54:46;;;;;;;14.55;4.93;;;31.50;81.60;;;;;;5006984;28;20048;-69
2021/07/26 11:58:06;;;;;;;16.85;5.28;;;31.80;80.90;;;;;;5021824;28;20045;-69
2021/07/26 12:01:11;;;;;;;14.80;4.88;;;32.90;80.00;;;;;;5029909;28;20066;-69
2021/07/26 12:04:16;;;;;;;19.85;5.22;;;33.50;79.70;;;;;;5011530;28;20040;-68
2021/07/26 12:07:43;;;;;;;15.18;4.82;;;33.80;77.00;;;;;;5021223;28;20523;-69
2021/07/26 12:10:48;;;;;;;21.40;5.18;;;33.80;78.00;;;;;;5017281;28;20048;-68
2021/07/26 12:13:52;;;;;;;13.18;4.75;;;34.50;76.90;;;;;;5012574;28;21302;-69
2021/07/26 12:17:04;;;;;;;19.45;5.18;;;35.40;75.40;;;;;;5021170;28;20538;-70
2021/07/26 12:20:20;;;;;;;15.88;5.60;;;36.40;74.10;;;;;;5020966;28;20057;-70
2021/07/26 12:23:29;;;;;;;19.02;5.40;;;37.20;73.20;;;;;;5017840;28;20057;-69
2021/07/26 12:26:35;;;;;;;13.65;4.75;;;37.10;73.10;;;;;;5018217;28;20044;-68
2021/07/26 12:29:59;;;;;;;13.77;4.93;;;37.30;71.50;;;;;;5018783;28;20550;-69
2021/07/26 12:33:05;;;;;;;13.43;4.90;;;37.00;71.80;;;;;;5020628;28;20048;-68
2021/07/26 12:36:15;;;;;;;15.27;5.05;;;36.50;71.60;;;;;;5017045;28;20056;-67
2021/07/26 12:39:19;;;;;;;14.70;5.28;;;36.00;72.70;;;;;;5019666;28;20878;-69
2021/07/26 12:42:23;;;;;;;20.20;5.35;;;36.10;72.00;;;;;;5018311;28;20048;-63
2021/07/26 12:45:28;;;;;;;20.30;5.15;;;35.30;75.10;;;;;;5009755;28;20061;-69
2021/07/26 12:48:35;;;;;;;17.05;5.35;;;34.80;75.00;;;;;;5016989;28;20519;-68
2021/07/26 12:51:39;;;;;;;22.77;5.43;;;34.50;75.30;;;;;;5019637;28;20052;-69
2021/07/26 12:54:44;;;;;;;23.42;5.45;;;33.20;75.50;;;;;;5010112;28;20056;-69
2021/07/26 12:57:49;;;;;;;22.10;5.03;;;33.60;76.30;;;;;;5020146;28;20408;-70
2021/07/26 13:00:58;;;;;;;16.05;5.65;;;35.50;73.60;;;;;;5022592;28;20427;-69
2021/07/26 13:04:05;;;;;;;12.23;5.10;;;35.10;74.90;;;;;;5008929;28;20068;-68
2021/07/26 13:07:14;;;;;;;19.98;6.43;;;34.80;73.10;;;;;;5021194;28;20060;-69
2021/07/26 13:10:18;;;;;;;18.58;5.45;;;35.10;73.80;;;;;;5022464;28;20498;-68
2021/07/26 13:13:22;;;;;;;14.98;5.03;;;33.80;74.80;;;;;;5014271;28;20052;-68
2021/07/26 13:16:26;;;;;;;22.52;5.68;;;32.70;76.20;;;;;;5018702;28;20057;-68
2021/07/26 13:19:33;;;;;;;21.88;4.95;;;33.40;76.10;;;;;;5023090;28;20041;-68
2021/07/26 13:22:38;;;;;;;13.82;4.78;;;34.30;74.20;;;;;;5016289;28;20052;-69
2021/07/26 13:25:43;;;;;;;19.50;6.28;;;34.30;74.70;;;;;;5011946;28;20048;-69
2021/07/26 13:28:49;;;;;;;19.90;5.15;;;34.70;73.10;;;;;;5016794;28;20048;-69
2021/07/26 13:31:53;;;;;;;20.98;5.30;;;33.90;75.20;;;;;;5020314;28;20053;-69
2021/07/26 13:34:57;;;;;;;23.75;5.03;;;33.70;73.70;;;;;;5010650;28;20052;-68
2021/07/26 13:38:02;;;;;;;25.75;5.38;;;34.30;74.00;;;;;;5022790;28;20045;-70
2021/07/26 13:41:08;;;;;;;17.92;5.20;;;34.50;74.90;;;;;;5021089;28;20074;-69
2021/07/26 13:44:12;;;;;;;19.60;5.10;;;33.70;74.30;;;;;;5014301;28;20068;-68
2021/07/26 13:47:16;;;;;;;36.08;5.40;;;33.60;73.60;;;;;;5014272;28;20045;-66
2021/07/26 13:50:21;;;;;;;22.55;5.10;;;33.60;74.20;;;;;;5018849;28;20132;-69
2021/07/26 13:53:26;;;;;;;17.25;5.07;;;33.70;72.80;;;;;;5026420;28;20389;-68
2021/07/26 13:56:30;;;;;;;24.23;5.03;;;33.60;72.40;;;;;;5024864;28;20044;-68
2021/07/26 13:59:35;;;;;;;19.63;4.50;;;32.90;73.40;;;;;;5014051;28;20049;-67
2021/07/26 14:02:42;;;;;;;22.42;5.22;;;32.90;73.00;;;;;;5022090;28;20040;-67
2021/07/26 14:05:46;;;;;;;19.77;5.18;;;32.80;72.60;;;;;;5022696;28;20049;-68
2021/07/26 14:08:50;;;;;;;27.40;5.72;;;33.00;72.50;;;;;;5026214;28;20049;-68
2021/07/26 14:11:57;;;;;;;29.08;5.00;;;32.30;71.20;;;;;;5023206;28;20515;-67
2021/07/26 14:15:01;;;;;;;24.92;5.72;;;32.10;72.50;;;;;;5028290;28;20045;-66
2021/07/26 14:18:05;;;;;;;19.58;4.65;;;31.70;71.60;;;;;;5015403;28;20376;-68
2021/07/26 14:21:09;;;;;;;19.85;5.47;;;31.80;72.10;;;;;;5017707;28;20037;-68
2021/07/26 14:24:14;;;;;;;16.25;4.28;;;32.00;72.00;;;;;;5028230;28;20590;-67
2021/07/26 14:27:19;;;;;;;25.42;4.47;;;32.00;72.00;;;;;;5022352;28;20281;-67
2021/07/26 14:30:25;;;;;;;24.90;5.30;;;32.20;73.10;;;;;;5028700;28;20053;-68
2021/07/26 14:33:29;;;;;;;25.92;4.82;;;32.00;72.90;;;;;;5027212;28;20064;-68
2021/07/26 14:36:34;;;;;;;22.48;4.13;;;32.00;73.00;;;;;;5018118;28;20452;-68
2021/07/26 14:39:40;;;;;;;21.00;5.45;;;32.20;73.10;;;;;;5027093;28;20056;-68
2021/07/26 14:42:44;;;;;;;24.75;5.00;;;32.40;72.90;;;;;;5018892;28;20053;-68
2021/07/26 14:45:48;;;;;;;23.88;5.60;;;32.70;71.80;;;;;;5010034;28;20052;-67
2021/07/26 14:48:56;;;;;;;21.50;5.03;;;32.50;72.00;;;;;;5028530;28;20056;-67
2021/07/26 14:52:01;;;;;;;25.13;4.82;;;32.40;71.50;;;;;;5029073;28;20044;-69
2021/07/26 14:55:08;;;;;;;22.58;4.80;;;32.20;72.30;;;;;;5029014;28;20121;-67
2021/07/26 14:58:13;;;;;;;20.77;5.13;;;32.30;72.10;;;;;;5025470;28;20683;-67
2021/07/26 15:01:18;;;;;;;30.73;5.63;;;32.40;71.90;;;;;;5025317;28;20040;-68
2021/07/26 15:04:22;;;;;;;27.70;6.22;;;32.40;72.60;;;;;;5026755;28;20311;-68
2021/07/26 15:07:28;;;;;;;26.42;5.00;;;32.70;71.40;;;;;;5029382;28;20041;-68
2021/07/26 15:10:32;;;;;;;29.17;5.50;;;32.10;71.60;;;;;;5020269;28;20112;-68
2021/07/26 15:13:37;;;;;;;27.10;5.53;;;32.40;72.30;;;;;;5021483;28;20044;-69
2021/07/26 15:16:42;;;;;;;20.38;5.10;;;32.90;72.60;;;;;;5031495;28;20040;-67
2021/07/26 15:19:47;;;;;;;26.52;5.15;;;32.60;71.20;;;;;;5024931;28;20044;-69
2021/07/26 15:22:51;;;;;;;25.60;5.82;;;32.70;72.40;;;;;;5031811;28;20041;-65
2021/07/26 15:25:56;;;;;;;31.30;5.90;;;32.70;72.00;;;;;;5020361;28;20495;-68
2021/07/26 15:29:01;;;;;;;23.02;5.57;;;32.90;71.70;;;;;;5019798;28;20599;-69
2021/07/26 15:32:07;;;;;;;27.85;5.85;;;33.10;72.60;;;;;;5022014;28;20538;-68
2021/07/26 15:35:12;;;;;;;31.58;5.70;;;33.20;72.00;;;;;;5021228;28;20265;-69
2021/07/26 15:38:16;;;;;;;27.50;4.70;;;32.90;72.60;;;;;;5023325;28;20048;-67
2021/07/26 15:41:20;;;;;;;30.45;5.22;;;32.40;72.60;;;;;;5022462;28;20405;-67
2021/07/26 15:44:24;;;;;;;38.08;6.18;;;32.20;72.70;;;;;;5021208;28;20056;-68
2021/07/26 15:47:29;;;;;;;25.88;4.93;;;31.80;72.70;;;;;;5021581;28;20060;-67
2021/07/26 15:50:34;;;;;;;24.83;5.22;;;31.40;73.60;;;;;;5021631;28;20060;-68
2021/07/26 15:53:39;;;;;;;27.75;5.70;;;31.70;73.60;;;;;;5020762;28;20511;-68
2021/07/26 15:56:52;;;;;;;21.30;4.90;;;31.80;73.40;;;;;;5020501;28;20057;-68
2021/07/26 15:59:56;;;;;;;26.02;5.55;;;31.60;74.00;;;;;;5031965;28;20498;-68
2021/07/26 16:03:05;;;;;;;20.75;5.25;;;31.90;73.70;;;;;;5032044;28;20041;-67
2021/07/26 16:06:10;;;;;;;29.80;5.78;;;32.00;73.90;;;;;;5028552;28;20391;-69